sensor_id;sensor_type;location;lat;lon;timestamp;P1;durP1;ratioP1;P2;durP2;ratioP2
53881;SDS011;39794;55.782;37.452;2023-07-02T00:00:27;10.60;;;7.35;;
53881;SDS011;39794;55.782;37.452;2023-07-02T00:02:56;8.40;;;6.63;;
53881;SDS011;39794;55.782;37.452;2023-07-02T00:05:25;11.25;;;7.18;;
53881;SDS011;39794;55.782;37.452;2023-07-02T00:07:55;11.75;;;7.10;;
53881;SDS011;39794;55.782;37.452;2023-07-02T00:10:23;11.88;;;7.45;;
53881;SDS011;39794;55.782;37.452;2023-07-02T00:12:52;9.57;;;7.43;;
53881;SDS011;39794;55.782;37.452;2023-07-02T00:15:20;11.52;;;7.82;;
53881;SDS011;39794;55.782;37.452;2023-07-02T00:17:49;8.95;;;7.28;;
53881;SDS011;39794;55.782;37.452;2023-07-02T00:20:19;10.98;;;7.45;;
53881;SDS011;39794;55.782;37.452;2023-07-02T00:22:48;9.10;;;8.07;;
53881;SDS011;39794;55.782;37.452;2023-07-02T00:25:20;9.50;;;5.65;;
53881;SDS011;39794;55.782;37.452;2023-07-02T00:27:49;9.48;;;7.80;;
53881;SDS011;39794;55.782;37.452;2023-07-02T00:30:17;8.27;;;6.85;;
53881;SDS011;39794;55.782;37.452;2023-07-02T00:32:46;10.23;;;7.47;;
53881;SDS011;39794;55.782;37.452;2023-07-02T00:35:15;9.57;;;7.35;;
53881;SDS011;39794;55.782;37.452;2023-07-02T00:37:43;10.25;;;7.75;;
53881;SDS011;39794;55.782;37.452;2023-07-02T00:40:12;12.68;;;7.97;;
53881;SDS011;39794;55.782;37.452;2023-07-02T00:42:42;10.48;;;7.57;;
53881;SDS011;39794;55.782;37.452;2023-07-02T00:45:11;8.85;;;7.57;;
53881;SDS011;39794;55.782;37.452;2023-07-02T00:47:39;12.60;;;7.97;;
53881;SDS011;39794;55.782;37.452;2023-07-02T00:50:10;10.00;;;7.65;;
53881;SDS011;39794;55.782;37.452;2023-07-02T00:52:39;11.05;;;7.00;;
53881;SDS011;39794;55.782;37.452;2023-07-02T00:55:07;11.80;;;6.78;;
53881;SDS011;39794;55.782;37.452;2023-07-02T00:57:37;9.35;;;7.20;;
53881;SDS011;39794;55.782;37.452;2023-07-02T01:00:09;12.38;;;8.27;;
53881;SDS011;39794;55.782;37.452;2023-07-02T01:02:39;11.05;;;6.70;;
53881;SDS011;39794;55.782;37.452;2023-07-02T01:05:13;7.93;;;6.70;;
53881;SDS011;39794;55.782;37.452;2023-07-02T01:07:43;10.18;;;7.68;;
53881;SDS011;39794;55.782;37.452;2023-07-02T01:10:12;7.60;;;6.55;;
53881;SDS011;39794;55.782;37.452;2023-07-02T01:12:40;10.70;;;6.95;;
53881;SDS011;39794;55.782;37.452;2023-07-02T01:15:12;7.85;;;6.97;;
53881;SDS011;39794;55.782;37.452;2023-07-02T01:17:40;11.48;;;7.43;;
53881;SDS011;39794;55.782;37.452;2023-07-02T01:20:11;9.95;;;7.18;;
53881;SDS011;39794;55.782;37.452;2023-07-02T01:22:42;11.57;;;7.88;;
53881;SDS011;39794;55.782;37.452;2023-07-02T01:25:11;11.50;;;7.50;;
53881;SDS011;39794;55.782;37.452;2023-07-02T01:27:40;10.45;;;7.00;;
53881;SDS011;39794;55.782;37.452;2023-07-02T01:30:08;11.45;;;8.10;;
53881;SDS011;39794;55.782;37.452;2023-07-02T01:32:37;10.68;;;7.10;;
53881;SDS011;39794;55.782;37.452;2023-07-02T01:35:07;11.00;;;7.00;;
53881;SDS011;39794;55.782;37.452;2023-07-02T01:37:38;10.57;;;6.20;;
53881;SDS011;39794;55.782;37.452;2023-07-02T01:40:07;7.68;;;5.50;;
53881;SDS011;39794;55.782;37.452;2023-07-02T01:42:37;7.80;;;5.45;;
53881;SDS011;39794;55.782;37.452;2023-07-02T01:45:07;8.48;;;6.15;;
53881;SDS011;39794;55.782;37.452;2023-07-02T01:47:36;8.30;;;6.40;;
53881;SDS011;39794;55.782;37.452;2023-07-02T01:50:05;8.43;;;6.13;;
53881;SDS011;39794;55.782;37.452;2023-07-02T01:52:34;6.97;;;5.45;;
53881;SDS011;39794;55.782;37.452;2023-07-02T01:55:05;6.57;;;5.70;;
53881;SDS011;39794;55.782;37.452;2023-07-02T01:57:33;8.73;;;6.40;;
53881;SDS011;39794;55.782;37.452;2023-07-02T02:00:02;7.38;;;5.78;;
53881;SDS011;39794;55.782;37.452;2023-07-02T02:02:42;8.50;;;5.95;;
53881;SDS011;39794;55.782;37.452;2023-07-02T02:05:11;7.07;;;6.38;;
53881;SDS011;39794;55.782;37.452;2023-07-02T02:07:39;11.23;;;6.25;;
53881;SDS011;39794;55.782;37.452;2023-07-02T02:10:10;7.43;;;5.57;;
53881;SDS011;39794;55.782;37.452;2023-07-02T02:12:39;7.90;;;6.28;;
53881;SDS011;39794;55.782;37.452;2023-07-02T02:15:07;7.25;;;5.93;;
53881;SDS011;39794;55.782;37.452;2023-07-02T02:17:39;7.28;;;5.82;;
53881;SDS011;39794;55.782;37.452;2023-07-02T02:20:08;9.32;;;5.53;;
53881;SDS011;39794;55.782;37.452;2023-07-02T02:22:37;8.77;;;5.60;;
53881;SDS011;39794;55.782;37.452;2023-07-02T02:25:06;10.60;;;6.32;;
53881;SDS011;39794;55.782;37.452;2023-07-02T02:27:36;8.40;;;6.10;;
53881;SDS011;39794;55.782;37.452;2023-07-02T02:30:06;7.10;;;6.10;;
53881;SDS011;39794;55.782;37.452;2023-07-02T02:32:36;7.30;;;5.35;;
53881;SDS011;39794;55.782;37.452;2023-07-02T02:35:08;7.65;;;6.03;;
53881;SDS011;39794;55.782;37.452;2023-07-02T02:37:38;10.07;;;5.75;;
53881;SDS011;39794;55.782;37.452;2023-07-02T02:40:08;8.23;;;5.90;;
53881;SDS011;39794;55.782;37.452;2023-07-02T02:42:39;9.90;;;5.72;;
53881;SDS011;39794;55.782;37.452;2023-07-02T02:45:08;8.60;;;5.75;;
53881;SDS011;39794;55.782;37.452;2023-07-02T02:47:40;11.23;;;5.15;;
53881;SDS011;39794;55.782;37.452;2023-07-02T02:50:11;5.97;;;4.82;;
53881;SDS011;39794;55.782;37.452;2023-07-02T02:52:41;7.63;;;5.07;;
53881;SDS011;39794;55.782;37.452;2023-07-02T02:55:09;5.28;;;4.78;;
53881;SDS011;39794;55.782;37.452;2023-07-02T02:57:40;6.45;;;5.05;;
53881;SDS011;39794;55.782;37.452;2023-07-02T03:00:10;10.02;;;5.40;;
53881;SDS011;39794;55.782;37.452;2023-07-02T03:02:39;5.55;;;4.32;;
53881;SDS011;39794;55.782;37.452;2023-07-02T03:05:08;6.80;;;5.10;;
53881;SDS011;39794;55.782;37.452;2023-07-02T03:07:38;8.05;;;5.93;;
53881;SDS011;39794;55.782;37.452;2023-07-02T03:10:07;8.35;;;5.57;;
53881;SDS011;39794;55.782;37.452;2023-07-02T03:12:36;9.82;;;5.45;;
53881;SDS011;39794;55.782;37.452;2023-07-02T03:15:06;7.95;;;5.03;;
53881;SDS011;39794;55.782;37.452;2023-07-02T03:17:37;6.60;;;4.80;;
53881;SDS011;39794;55.782;37.452;2023-07-02T03:20:06;7.18;;;5.20;;
53881;SDS011;39794;55.782;37.452;2023-07-02T03:22:36;8.98;;;6.25;;
53881;SDS011;39794;55.782;37.452;2023-07-02T03:25:04;11.55;;;6.00;;
53881;SDS011;39794;55.782;37.452;2023-07-02T03:27:35;6.47;;;5.18;;
53881;SDS011;39794;55.782;37.452;2023-07-02T03:30:06;9.02;;;4.93;;
53881;SDS011;39794;55.782;37.452;2023-07-02T03:32:36;6.57;;;5.63;;
53881;SDS011;39794;55.782;37.452;2023-07-02T03:35:05;9.35;;;5.75;;
53881;SDS011;39794;55.782;37.452;2023-07-02T03:37:34;8.30;;;4.75;;
53881;SDS011;39794;55.782;37.452;2023-07-02T03:40:03;9.63;;;5.22;;
53881;SDS011;39794;55.782;37.452;2023-07-02T03:42:33;9.50;;;5.43;;
53881;SDS011;39794;55.782;37.452;2023-07-02T03:45:01;8.05;;;4.55;;
53881;SDS011;39794;55.782;37.452;2023-07-02T03:47:33;6.97;;;4.70;;
53881;SDS011;39794;55.782;37.452;2023-07-02T03:50:02;6.82;;;4.68;;
53881;SDS011;39794;55.782;37.452;2023-07-02T03:52:31;10.32;;;4.90;;
53881;SDS011;39794;55.782;37.452;2023-07-02T03:55:00;5.70;;;4.13;;
53881;SDS011;39794;55.782;37.452;2023-07-02T03:57:30;5.53;;;4.80;;
53881;SDS011;39794;55.782;37.452;2023-07-02T03:59:58;6.45;;;4.53;;
53881;SDS011;39794;55.782;37.452;2023-07-02T04:02:32;7.75;;;3.53;;
53881;SDS011;39794;55.782;37.452;2023-07-02T04:05:02;8.95;;;4.85;;
53881;SDS011;39794;55.782;37.452;2023-07-02T04:07:31;9.52;;;4.80;;
53881;SDS011;39794;55.782;37.452;2023-07-02T04:10:00;5.63;;;4.38;;
53881;SDS011;39794;55.782;37.452;2023-07-02T04:12:31;4.35;;;3.85;;
53881;SDS011;39794;55.782;37.452;2023-07-02T04:15:00;6.65;;;4.18;;
53881;SDS011;39794;55.782;37.452;2023-07-02T04:17:34;5.35;;;4.70;;
53881;SDS011;39794;55.782;37.452;2023-07-02T04:20:03;6.53;;;4.45;;
53881;SDS011;39794;55.782;37.452;2023-07-02T04:22:34;5.40;;;3.90;;
53881;SDS011;39794;55.782;37.452;2023-07-02T04:25:03;6.82;;;4.43;;
53881;SDS011;39794;55.782;37.452;2023-07-02T04:27:52;5.70;;;4.07;;
53881;SDS011;39794;55.782;37.452;2023-07-02T04:30:23;7.22;;;4.45;;
53881;SDS011;39794;55.782;37.452;2023-07-02T04:32:53;6.15;;;3.55;;
53881;SDS011;39794;55.782;37.452;2023-07-02T04:35:22;7.03;;;4.40;;
53881;SDS011;39794;55.782;37.452;2023-07-02T04:37:51;7.65;;;4.40;;
53881;SDS011;39794;55.782;37.452;2023-07-02T04:40:20;5.13;;;3.92;;
53881;SDS011;39794;55.782;37.452;2023-07-02T04:42:48;6.57;;;4.57;;
53881;SDS011;39794;55.782;37.452;2023-07-02T04:45:25;6.90;;;4.45;;
53881;SDS011;39794;55.782;37.452;2023-07-02T04:48:00;4.43;;;3.65;;
53881;SDS011;39794;55.782;37.452;2023-07-02T04:50:29;6.88;;;4.80;;
53881;SDS011;39794;55.782;37.452;2023-07-02T04:52:58;6.25;;;4.32;;
53881;SDS011;39794;55.782;37.452;2023-07-02T04:55:26;7.85;;;3.78;;
53881;SDS011;39794;55.782;37.452;2023-07-02T04:57:55;7.85;;;4.10;;
53881;SDS011;39794;55.782;37.452;2023-07-02T05:00:26;6.20;;;4.22;;
53881;SDS011;39794;55.782;37.452;2023-07-02T05:02:55;5.80;;;4.10;;
53881;SDS011;39794;55.782;37.452;2023-07-02T05:05:25;6.63;;;4.20;;
53881;SDS011;39794;55.782;37.452;2023-07-02T05:07:55;8.07;;;4.80;;
53881;SDS011;39794;55.782;37.452;2023-07-02T05:10:24;6.00;;;4.80;;
53881;SDS011;39794;55.782;37.452;2023-07-02T05:12:54;6.63;;;5.07;;
53881;SDS011;39794;55.782;37.452;2023-07-02T05:15:23;5.85;;;4.47;;
53881;SDS011;39794;55.782;37.452;2023-07-02T05:17:53;5.68;;;4.88;;
53881;SDS011;39794;55.782;37.452;2023-07-02T05:20:22;4.95;;;4.22;;
53881;SDS011;39794;55.782;37.452;2023-07-02T05:22:52;7.80;;;4.10;;
53881;SDS011;39794;55.782;37.452;2023-07-02T05:25:20;5.82;;;4.18;;
53881;SDS011;39794;55.782;37.452;2023-07-02T05:27:49;6.28;;;3.92;;
53881;SDS011;39794;55.782;37.452;2023-07-02T05:30:18;5.63;;;4.05;;
53881;SDS011;39794;55.782;37.452;2023-07-02T05:32:47;5.72;;;4.22;;
53881;SDS011;39794;55.782;37.452;2023-07-02T05:35:15;6.03;;;4.05;;
53881;SDS011;39794;55.782;37.452;2023-07-02T05:37:46;6.65;;;4.43;;
53881;SDS011;39794;55.782;37.452;2023-07-02T05:40:15;7.45;;;3.95;;
53881;SDS011;39794;55.782;37.452;2023-07-02T05:42:45;7.22;;;3.90;;
53881;SDS011;39794;55.782;37.452;2023-07-02T05:45:14;6.50;;;3.88;;
53881;SDS011;39794;55.782;37.452;2023-07-02T05:47:43;5.03;;;3.88;;
53881;SDS011;39794;55.782;37.452;2023-07-02T05:50:12;5.18;;;4.25;;
53881;SDS011;39794;55.782;37.452;2023-07-02T05:52:40;8.55;;;4.05;;
53881;SDS011;39794;55.782;37.452;2023-07-02T05:55:09;6.82;;;4.40;;
53881;SDS011;39794;55.782;37.452;2023-07-02T05:57:39;8.32;;;4.10;;
53881;SDS011;39794;55.782;37.452;2023-07-02T06:00:08;7.53;;;4.07;;
53881;SDS011;39794;55.782;37.452;2023-07-02T06:02:40;7.13;;;3.35;;
53881;SDS011;39794;55.782;37.452;2023-07-02T06:05:08;5.50;;;3.75;;
53881;SDS011;39794;55.782;37.452;2023-07-02T06:07:37;6.68;;;4.05;;
53881;SDS011;39794;55.782;37.452;2023-07-02T06:10:06;6.93;;;4.25;;
53881;SDS011;39794;55.782;37.452;2023-07-02T06:12:35;4.95;;;3.80;;
53881;SDS011;39794;55.782;37.452;2023-07-02T06:15:05;6.35;;;4.25;;
53881;SDS011;39794;55.782;37.452;2023-07-02T06:17:35;4.55;;;3.75;;
53881;SDS011;39794;55.782;37.452;2023-07-02T06:20:03;7.45;;;4.35;;
53881;SDS011;39794;55.782;37.452;2023-07-02T06:22:33;7.32;;;4.40;;
53881;SDS011;39794;55.782;37.452;2023-07-02T06:25:02;4.82;;;3.47;;
53881;SDS011;39794;55.782;37.452;2023-07-02T06:27:31;6.78;;;4.70;;
53881;SDS011;39794;55.782;37.452;2023-07-02T06:30:00;5.95;;;4.50;;
53881;SDS011;39794;55.782;37.452;2023-07-02T06:32:32;6.90;;;3.85;;
53881;SDS011;39794;55.782;37.452;2023-07-02T06:35:01;7.32;;;3.70;;
53881;SDS011;39794;55.782;37.452;2023-07-02T06:37:33;8.13;;;3.85;;
53881;SDS011;39794;55.782;37.452;2023-07-02T06:40:01;6.03;;;3.50;;
53881;SDS011;39794;55.782;37.452;2023-07-02T06:42:31;4.25;;;3.30;;
53881;SDS011;39794;55.782;37.452;2023-07-02T06:45:03;6.47;;;3.53;;
53881;SDS011;39794;55.782;37.452;2023-07-02T06:47:35;7.70;;;3.78;;
53881;SDS011;39794;55.782;37.452;2023-07-02T06:50:04;5.55;;;3.53;;
53881;SDS011;39794;55.782;37.452;2023-07-02T06:52:32;4.38;;;3.17;;
53881;SDS011;39794;55.782;37.452;2023-07-02T06:55:01;5.57;;;3.50;;
53881;SDS011;39794;55.782;37.452;2023-07-02T06:57:30;4.25;;;3.15;;
53881;SDS011;39794;55.782;37.452;2023-07-02T06:59:59;5.18;;;3.40;;
53881;SDS011;39794;55.782;37.452;2023-07-02T07:02:31;7.18;;;3.97;;
53881;SDS011;39794;55.782;37.452;2023-07-02T07:05:01;4.75;;;3.70;;
53881;SDS011;39794;55.782;37.452;2023-07-02T07:07:31;8.93;;;3.50;;
53881;SDS011;39794;55.782;37.452;2023-07-02T07:10:00;6.00;;;3.60;;
53881;SDS011;39794;55.782;37.452;2023-07-02T07:12:29;9.45;;;3.38;;
53881;SDS011;39794;55.782;37.452;2023-07-02T07:14:58;6.97;;;3.17;;
53881;SDS011;39794;55.782;37.452;2023-07-02T07:17:27;4.20;;;3.17;;
53881;SDS011;39794;55.782;37.452;2023-07-02T07:19:55;5.38;;;3.40;;
53881;SDS011;39794;55.782;37.452;2023-07-02T07:22:25;6.95;;;3.40;;
53881;SDS011;39794;55.782;37.452;2023-07-02T07:24:54;4.50;;;3.60;;
53881;SDS011;39794;55.782;37.452;2023-07-02T07:27:22;5.07;;;2.90;;
53881;SDS011;39794;55.782;37.452;2023-07-02T07:29:51;6.18;;;3.45;;
53881;SDS011;39794;55.782;37.452;2023-07-02T07:32:20;5.55;;;3.15;;
53881;SDS011;39794;55.782;37.452;2023-07-02T07:34:49;6.30;;;2.90;;
53881;SDS011;39794;55.782;37.452;2023-07-02T07:37:18;5.57;;;2.80;;
53881;SDS011;39794;55.782;37.452;2023-07-02T07:39:48;5.32;;;2.85;;
53881;SDS011;39794;55.782;37.452;2023-07-02T07:42:16;5.63;;;2.95;;
53881;SDS011;39794;55.782;37.452;2023-07-02T07:44:45;3.50;;;3.08;;
53881;SDS011;39794;55.782;37.452;2023-07-02T07:47:14;4.50;;;2.55;;
53881;SDS011;39794;55.782;37.452;2023-07-02T07:49:42;4.90;;;2.50;;
53881;SDS011;39794;55.782;37.452;2023-07-02T07:52:11;3.95;;;2.63;;
53881;SDS011;39794;55.782;37.452;2023-07-02T07:54:39;4.45;;;3.03;;
53881;SDS011;39794;55.782;37.452;2023-07-02T07:57:09;5.22;;;3.03;;
53881;SDS011;39794;55.782;37.452;2023-07-02T07:59:38;4.32;;;3.05;;
53881;SDS011;39794;55.782;37.452;2023-07-02T08:02:06;4.65;;;3.00;;
53881;SDS011;39794;55.782;37.452;2023-07-02T08:04:36;3.88;;;2.92;;
53881;SDS011;39794;55.782;37.452;2023-07-02T08:07:07;5.15;;;2.83;;
53881;SDS011;39794;55.782;37.452;2023-07-02T08:09:36;8.10;;;3.22;;
53881;SDS011;39794;55.782;37.452;2023-07-02T08:12:04;4.55;;;2.65;;
53881;SDS011;39794;55.782;37.452;2023-07-02T08:14:34;5.10;;;2.50;;
53881;SDS011;39794;55.782;37.452;2023-07-02T08:17:03;6.90;;;3.10;;
53881;SDS011;39794;55.782;37.452;2023-07-02T08:19:32;10.60;;;3.33;;
53881;SDS011;39794;55.782;37.452;2023-07-02T08:22:01;6.47;;;2.92;;
53881;SDS011;39794;55.782;37.452;2023-07-02T08:24:29;5.47;;;2.67;;
53881;SDS011;39794;55.782;37.452;2023-07-02T08:26:58;4.82;;;2.97;;
53881;SDS011;39794;55.782;37.452;2023-07-02T08:29:29;4.53;;;2.97;;
53881;SDS011;39794;55.782;37.452;2023-07-02T08:31:59;6.65;;;3.10;;
53881;SDS011;39794;55.782;37.452;2023-07-02T08:34:28;4.97;;;2.97;;
53881;SDS011;39794;55.782;37.452;2023-07-02T08:36:56;5.45;;;3.00;;
53881;SDS011;39794;55.782;37.452;2023-07-02T08:39:25;7.03;;;3.20;;
53881;SDS011;39794;55.782;37.452;2023-07-02T08:41:54;6.00;;;2.80;;
53881;SDS011;39794;55.782;37.452;2023-07-02T08:44:22;5.85;;;3.00;;
53881;SDS011;39794;55.782;37.452;2023-07-02T08:46:51;3.95;;;2.85;;
53881;SDS011;39794;55.782;37.452;2023-07-02T08:49:24;5.60;;;2.75;;
53881;SDS011;39794;55.782;37.452;2023-07-02T08:51:53;8.45;;;3.05;;
53881;SDS011;39794;55.782;37.452;2023-07-02T08:54:22;5.15;;;3.45;;
53881;SDS011;39794;55.782;37.452;2023-07-02T08:56:51;5.70;;;2.88;;
53881;SDS011;39794;55.782;37.452;2023-07-02T08:59:21;4.57;;;2.75;;
53881;SDS011;39794;55.782;37.452;2023-07-02T09:01:50;5.63;;;2.47;;
53881;SDS011;39794;55.782;37.452;2023-07-02T09:04:19;8.95;;;2.83;;
53881;SDS011;39794;55.782;37.452;2023-07-02T09:06:50;6.60;;;2.42;;
53881;SDS011;39794;55.782;37.452;2023-07-02T09:09:19;5.07;;;2.80;;
53881;SDS011;39794;55.782;37.452;2023-07-02T09:11:48;5.28;;;2.63;;
53881;SDS011;39794;55.782;37.452;2023-07-02T09:14:24;3.67;;;2.50;;
53881;SDS011;39794;55.782;37.452;2023-07-02T09:17:01;5.18;;;2.35;;
53881;SDS011;39794;55.782;37.452;2023-07-02T09:19:31;3.88;;;2.38;;
53881;SDS011;39794;55.782;37.452;2023-07-02T09:22:01;5.70;;;2.70;;
53881;SDS011;39794;55.782;37.452;2023-07-02T09:24:31;3.88;;;2.80;;
53881;SDS011;39794;55.782;37.452;2023-07-02T09:27:00;3.78;;;2.25;;
53881;SDS011;39794;55.782;37.452;2023-07-02T09:29:30;7.72;;;2.83;;
53881;SDS011;39794;55.782;37.452;2023-07-02T09:32:00;4.70;;;2.58;;
53881;SDS011;39794;55.782;37.452;2023-07-02T09:34:37;5.32;;;3.08;;
53881;SDS011;39794;55.782;37.452;2023-07-02T09:37:10;4.65;;;3.22;;
53881;SDS011;39794;55.782;37.452;2023-07-02T09:39:39;5.18;;;2.78;;
53881;SDS011;39794;55.782;37.452;2023-07-02T09:42:07;4.25;;;2.85;;
53881;SDS011;39794;55.782;37.452;2023-07-02T09:44:37;5.13;;;3.47;;
53881;SDS011;39794;55.782;37.452;2023-07-02T09:47:08;5.30;;;2.70;;
53881;SDS011;39794;55.782;37.452;2023-07-02T09:49:37;6.75;;;2.80;;
53881;SDS011;39794;55.782;37.452;2023-07-02T09:52:07;3.70;;;2.50;;
53881;SDS011;39794;55.782;37.452;2023-07-02T09:54:38;6.18;;;3.13;;
53881;SDS011;39794;55.782;37.452;2023-07-02T09:57:06;6.82;;;3.33;;
53881;SDS011;39794;55.782;37.452;2023-07-02T09:59:35;3.88;;;2.92;;
53881;SDS011;39794;55.782;37.452;2023-07-02T10:02:05;3.45;;;2.50;;
53881;SDS011;39794;55.782;37.452;2023-07-02T10:04:39;4.97;;;2.97;;
53881;SDS011;39794;55.782;37.452;2023-07-02T10:07:11;4.20;;;2.75;;
53881;SDS011;39794;55.782;37.452;2023-07-02T10:09:43;6.65;;;2.40;;
53881;SDS011;39794;55.782;37.452;2023-07-02T10:12:17;3.47;;;2.70;;
53881;SDS011;39794;55.782;37.452;2023-07-02T10:14:46;6.43;;;2.72;;
53881;SDS011;39794;55.782;37.452;2023-07-02T10:17:23;5.68;;;2.60;;
53881;SDS011;39794;55.782;37.452;2023-07-02T10:19:53;5.20;;;2.40;;
53881;SDS011;39794;55.782;37.452;2023-07-02T10:22:24;5.35;;;2.78;;
53881;SDS011;39794;55.782;37.452;2023-07-02T10:24:54;6.70;;;2.70;;
53881;SDS011;39794;55.782;37.452;2023-07-02T10:27:33;7.68;;;3.10;;
53881;SDS011;39794;55.782;37.452;2023-07-02T10:30:04;4.20;;;2.20;;
53881;SDS011;39794;55.782;37.452;2023-07-02T10:32:33;3.85;;;2.50;;
53881;SDS011;39794;55.782;37.452;2023-07-02T10:35:12;4.47;;;2.72;;
53881;SDS011;39794;55.782;37.452;2023-07-02T10:37:43;6.00;;;2.88;;
53881;SDS011;39794;55.782;37.452;2023-07-02T10:40:13;3.92;;;2.47;;
53881;SDS011;39794;55.782;37.452;2023-07-02T10:42:45;3.78;;;2.60;;
53881;SDS011;39794;55.782;37.452;2023-07-02T10:45:15;7.28;;;2.63;;
53881;SDS011;39794;55.782;37.452;2023-07-02T10:47:44;6.03;;;2.90;;
53881;SDS011;39794;55.782;37.452;2023-07-02T10:50:16;4.05;;;2.15;;
53881;SDS011;39794;55.782;37.452;2023-07-02T10:52:47;7.78;;;2.55;;
53881;SDS011;39794;55.782;37.452;2023-07-02T10:55:18;4.78;;;2.20;;
53881;SDS011;39794;55.782;37.452;2023-07-02T10:57:50;3.30;;;2.47;;
53881;SDS011;39794;55.782;37.452;2023-07-02T11:02:49;3.88;;;2.22;;
53881;SDS011;39794;55.782;37.452;2023-07-02T11:05:18;3.58;;;2.53;;
53881;SDS011;39794;55.782;37.452;2023-07-02T11:07:48;3.53;;;2.40;;
53881;SDS011;39794;55.782;37.452;2023-07-02T11:10:23;5.75;;;2.53;;
53881;SDS011;39794;55.782;37.452;2023-07-02T11:12:53;3.60;;;2.58;;
53881;SDS011;39794;55.782;37.452;2023-07-02T11:15:21;5.95;;;2.83;;
53881;SDS011;39794;55.782;37.452;2023-07-02T11:17:50;6.40;;;2.22;;
53881;SDS011;39794;55.782;37.452;2023-07-02T11:20:19;5.43;;;2.30;;
53881;SDS011;39794;55.782;37.452;2023-07-02T11:22:49;4.82;;;2.40;;
53881;SDS011;39794;55.782;37.452;2023-07-02T11:25:18;6.38;;;3.28;;
53881;SDS011;39794;55.782;37.452;2023-07-02T11:27:47;4.18;;;2.65;;
53881;SDS011;39794;55.782;37.452;2023-07-02T11:30:16;5.10;;;2.03;;
53881;SDS011;39794;55.782;37.452;2023-07-02T11:32:48;4.20;;;2.25;;
53881;SDS011;39794;55.782;37.452;2023-07-02T11:35:18;8.73;;;2.55;;
53881;SDS011;39794;55.782;37.452;2023-07-02T11:37:49;6.20;;;2.45;;
53881;SDS011;39794;55.782;37.452;2023-07-02T11:40:17;3.63;;;2.40;;
53881;SDS011;39794;55.782;37.452;2023-07-02T11:42:47;4.57;;;2.83;;
53881;SDS011;39794;55.782;37.452;2023-07-02T11:45:18;8.77;;;2.75;;
53881;SDS011;39794;55.782;37.452;2023-07-02T11:47:46;5.63;;;2.53;;
53881;SDS011;39794;55.782;37.452;2023-07-02T11:50:19;3.05;;;2.10;;
53881;SDS011;39794;55.782;37.452;2023-07-02T11:52:54;4.45;;;2.40;;
53881;SDS011;39794;55.782;37.452;2023-07-02T11:55:23;4.68;;;2.10;;
53881;SDS011;39794;55.782;37.452;2023-07-02T11:57:51;4.03;;;2.40;;
53881;SDS011;39794;55.782;37.452;2023-07-02T12:00:20;4.50;;;2.30;;
53881;SDS011;39794;55.782;37.452;2023-07-02T12:02:49;5.60;;;2.60;;
53881;SDS011;39794;55.782;37.452;2023-07-02T12:05:18;2.53;;;1.90;;
53881;SDS011;39794;55.782;37.452;2023-07-02T12:07:47;3.15;;;1.95;;
53881;SDS011;39794;55.782;37.452;2023-07-02T12:10:17;5.57;;;2.50;;
53881;SDS011;39794;55.782;37.452;2023-07-02T12:12:46;4.38;;;2.90;;
53881;SDS011;39794;55.782;37.452;2023-07-02T12:15:14;4.05;;;2.38;;
53881;SDS011;39794;55.782;37.452;2023-07-02T12:17:43;5.22;;;2.58;;
53881;SDS011;39794;55.782;37.452;2023-07-02T12:20:12;4.82;;;2.53;;
53881;SDS011;39794;55.782;37.452;2023-07-02T12:22:40;6.60;;;2.90;;
53881;SDS011;39794;55.782;37.452;2023-07-02T12:25:11;5.95;;;2.50;;
53881;SDS011;39794;55.782;37.452;2023-07-02T12:27:41;8.00;;;2.80;;
53881;SDS011;39794;55.782;37.452;2023-07-02T12:30:09;3.95;;;2.97;;
53881;SDS011;39794;55.782;37.452;2023-07-02T12:32:38;6.13;;;2.80;;
53881;SDS011;39794;55.782;37.452;2023-07-02T12:35:07;4.95;;;2.63;;
53881;SDS011;39794;55.782;37.452;2023-07-02T12:37:42;4.07;;;2.42;;
53881;SDS011;39794;55.782;37.452;2023-07-02T12:40:12;3.95;;;2.65;;
53881;SDS011;39794;55.782;37.452;2023-07-02T12:42:42;5.15;;;2.30;;
53881;SDS011;39794;55.782;37.452;2023-07-02T12:45:11;7.57;;;2.67;;
53881;SDS011;39794;55.782;37.452;2023-07-02T12:47:43;4.97;;;2.40;;
53881;SDS011;39794;55.782;37.452;2023-07-02T12:50:11;3.85;;;2.47;;
53881;SDS011;39794;55.782;37.452;2023-07-02T12:52:41;3.83;;;2.05;;
53881;SDS011;39794;55.782;37.452;2023-07-02T12:55:09;7.65;;;2.55;;
53881;SDS011;39794;55.782;37.452;2023-07-02T12:57:38;5.32;;;2.58;;
53881;SDS011;39794;55.782;37.452;2023-07-02T13:00:09;3.55;;;2.80;;
53881;SDS011;39794;55.782;37.452;2023-07-02T13:02:38;6.18;;;2.85;;
53881;SDS011;39794;55.782;37.452;2023-07-02T13:05:26;6.13;;;2.60;;
53881;SDS011;39794;55.782;37.452;2023-07-02T13:07:55;5.78;;;2.75;;
53881;SDS011;39794;55.782;37.452;2023-07-02T13:10:24;6.70;;;3.13;;
53881;SDS011;39794;55.782;37.452;2023-07-02T13:12:52;6.18;;;2.70;;
53881;SDS011;39794;55.782;37.452;2023-07-02T13:15:28;5.55;;;2.90;;
53881;SDS011;39794;55.782;37.452;2023-07-02T13:17:57;4.30;;;2.30;;
53881;SDS011;39794;55.782;37.452;2023-07-02T13:20:25;6.90;;;2.83;;
53881;SDS011;39794;55.782;37.452;2023-07-02T13:22:54;3.42;;;2.58;;
53881;SDS011;39794;55.782;37.452;2023-07-02T13:25:22;6.85;;;2.35;;
53881;SDS011;39794;55.782;37.452;2023-07-02T13:27:51;5.80;;;3.08;;
53881;SDS011;39794;55.782;37.452;2023-07-02T13:30:19;3.97;;;2.58;;
53881;SDS011;39794;55.782;37.452;2023-07-02T13:32:49;4.63;;;2.97;;
53881;SDS011;39794;55.782;37.452;2023-07-02T13:35:19;6.13;;;3.08;;
53881;SDS011;39794;55.782;37.452;2023-07-02T13:37:49;4.45;;;3.20;;
53881;SDS011;39794;55.782;37.452;2023-07-02T13:40:18;5.95;;;3.00;;
53881;SDS011;39794;55.782;37.452;2023-07-02T13:42:47;3.25;;;2.38;;
53881;SDS011;39794;55.782;37.452;2023-07-02T13:45:15;8.13;;;3.20;;
53881;SDS011;39794;55.782;37.452;2023-07-02T13:47:44;3.97;;;2.60;;
53881;SDS011;39794;55.782;37.452;2023-07-02T13:50:15;6.57;;;3.35;;
53881;SDS011;39794;55.782;37.452;2023-07-02T13:52:43;8.23;;;2.95;;
53881;SDS011;39794;55.782;37.452;2023-07-02T13:55:16;6.70;;;3.20;;
53881;SDS011;39794;55.782;37.452;2023-07-02T13:57:46;5.57;;;2.80;;
53881;SDS011;39794;55.782;37.452;2023-07-02T14:00:16;5.00;;;2.50;;
53881;SDS011;39794;55.782;37.452;2023-07-02T14:02:45;4.85;;;2.92;;
53881;SDS011;39794;55.782;37.452;2023-07-02T14:05:13;4.40;;;3.17;;
53881;SDS011;39794;55.782;37.452;2023-07-02T14:07:42;6.32;;;3.45;;
53881;SDS011;39794;55.782;37.452;2023-07-02T14:10:11;6.20;;;3.15;;
53881;SDS011;39794;55.782;37.452;2023-07-02T14:12:40;5.22;;;2.92;;
53881;SDS011;39794;55.782;37.452;2023-07-02T14:15:09;5.35;;;3.00;;
53881;SDS011;39794;55.782;37.452;2023-07-02T14:17:40;4.50;;;2.53;;
53881;SDS011;39794;55.782;37.452;2023-07-02T14:20:09;4.57;;;2.90;;
53881;SDS011;39794;55.782;37.452;2023-07-02T14:22:38;6.68;;;3.30;;
53881;SDS011;39794;55.782;37.452;2023-07-02T14:25:06;5.63;;;3.15;;
53881;SDS011;39794;55.782;37.452;2023-07-02T14:27:36;5.05;;;2.67;;
53881;SDS011;39794;55.782;37.452;2023-07-02T14:30:05;4.90;;;3.30;;
53881;SDS011;39794;55.782;37.452;2023-07-02T14:32:35;4.57;;;2.80;;
53881;SDS011;39794;55.782;37.452;2023-07-02T14:35:06;5.53;;;3.35;;
53881;SDS011;39794;55.782;37.452;2023-07-02T14:37:36;6.55;;;3.30;;
53881;SDS011;39794;55.782;37.452;2023-07-02T14:40:05;5.43;;;2.88;;
53881;SDS011;39794;55.782;37.452;2023-07-02T14:42:37;5.85;;;3.42;;
53881;SDS011;39794;55.782;37.452;2023-07-02T14:45:06;5.82;;;3.35;;
53881;SDS011;39794;55.782;37.452;2023-07-02T14:47:36;4.50;;;3.20;;
53881;SDS011;39794;55.782;37.452;2023-07-02T14:50:06;6.50;;;3.25;;